createdAt,value
2018-07-27T00:00:38.156Z,25.65
2018-07-27T00:01:38.211Z,25.82
2018-07-27T00:02:38.130Z,25.73
2018-07-27T00:03:38.120Z,25.64
2018-07-27T00:04:38.106Z,25.72
2018-07-27T00:05:38.098Z,25.65
2018-07-27T00:06:38.158Z,25.64
2018-07-27T00:07:38.072Z,25.58
2018-07-27T00:08:38.062Z,25.60
2018-07-27T00:09:38.054Z,25.60
2018-07-27T00:10:38.051Z,25.55
2018-07-27T00:11:38.098Z,25.61
2018-07-27T00:12:38.028Z,25.52
2018-07-27T00:13:38.019Z,25.52
2018-07-27T00:14:38.857Z,25.52
2018-07-27T00:15:37.990Z,25.47
2018-07-27T00:16:38.051Z,25.35
2018-07-27T00:17:37.973Z,25.42
2018-07-27T00:18:37.967Z,25.52
2018-07-27T00:19:37.948Z,25.50
2018-07-27T00:20:37.939Z,25.39
2018-07-27T00:21:46.168Z,25.35
2018-07-27T00:22:46.000Z,25.32
2018-07-27T00:23:46.011Z,25.28
2018-07-27T00:24:46.530Z,25.25
2018-07-27T00:25:37.884Z,25.27
2018-07-27T00:26:37.935Z,25.21
2018-07-27T00:27:37.862Z,25.18
2018-07-27T00:28:37.855Z,25.21
2018-07-27T00:29:45.947Z,25.18
2018-07-27T00:30:45.350Z,25.23
2018-07-27T00:31:46.852Z,25.27
2018-07-27T00:32:45.352Z,25.25
2018-07-27T00:33:45.876Z,25.20
2018-07-27T00:34:45.873Z,25.17
2018-07-27T00:35:37.774Z,25.18
2018-07-27T00:36:37.836Z,25.13
2018-07-27T00:37:37.754Z,25.09
2018-07-27T00:38:37.746Z,25.06
2018-07-27T00:39:37.732Z,25.13
2018-07-27T00:40:37.721Z,25.06
2018-07-27T00:41:37.774Z,24.99
2018-07-27T00:42:37.702Z,25.05
2018-07-27T00:43:37.696Z,25.02
2018-07-27T00:44:38.207Z,24.95
2018-07-27T00:45:37.679Z,24.98
2018-07-27T00:46:37.716Z,24.93
2018-07-27T00:47:37.650Z,24.91
2018-07-27T00:48:37.644Z,24.99
2018-07-27T00:49:37.622Z,24.95
2018-07-27T00:50:37.611Z,24.96
2018-07-27T00:51:37.686Z,24.93
2018-07-27T00:52:37.594Z,24.93
2018-07-27T00:53:37.578Z,24.98
2018-07-27T00:54:37.567Z,24.90
2018-07-27T00:55:38.213Z,24.80
2018-07-27T00:56:37.549Z,24.90
2018-07-27T00:57:37.607Z,24.96
2018-07-27T00:58:37.530Z,24.81
2018-07-27T00:59:37.514Z,24.83
2018-07-27T01:00:37.508Z,24.83
2018-07-27T01:01:37.494Z,24.80
2018-07-27T01:02:37.795Z,24.88
2018-07-27T01:03:37.470Z,24.85
2018-07-27T01:04:37.459Z,24.78
2018-07-27T01:05:37.450Z,24.80
2018-07-27T01:06:37.439Z,24.77
2018-07-27T01:07:37.503Z,24.77
2018-07-27T01:08:37.417Z,24.68
2018-07-27T01:09:37.406Z,24.77
2018-07-27T01:10:37.395Z,24.73
2018-07-27T01:11:37.385Z,24.77
2018-07-27T01:12:37.439Z,24.78
2018-07-27T01:13:37.362Z,24.76
2018-07-27T01:14:37.353Z,24.73
2018-07-27T01:15:37.343Z,24.64
2018-07-27T01:16:38.205Z,24.68
2018-07-27T01:17:37.389Z,24.68
2018-07-27T01:18:37.307Z,24.67
2018-07-27T01:19:37.301Z,24.60
2018-07-27T01:20:37.290Z,24.58
2018-07-27T01:21:37.279Z,24.57
2018-07-27T01:22:37.332Z,24.50
2018-07-27T01:23:37.259Z,24.50
2018-07-27T01:24:37.246Z,24.49
2018-07-27T01:25:37.236Z,24.53
2018-07-27T01:26:37.230Z,24.37
2018-07-27T01:27:37.295Z,24.43
2018-07-27T01:28:37.198Z,24.39
2018-07-27T01:29:37.188Z,24.45
2018-07-27T01:30:37.176Z,24.34
2018-07-27T01:31:37.177Z,24.32
2018-07-27T01:32:37.231Z,24.35
2018-07-27T01:33:37.150Z,24.30
2018-07-27T01:34:37.131Z,24.28
2018-07-27T01:35:37.123Z,24.32
2018-07-27T01:36:37.114Z,24.22
2018-07-27T01:37:37.279Z,24.25
2018-07-27T01:38:37.093Z,24.15
2018-07-27T01:39:37.079Z,24.15
2018-07-27T01:40:37.075Z,24.16
2018-07-27T01:41:37.059Z,24.15
2018-07-27T01:42:37.112Z,24.13
2018-07-27T01:43:37.039Z,24.15
2018-07-27T01:44:37.028Z,24.16
2018-07-27T01:45:37.012Z,24.15
2018-07-27T01:46:37.001Z,24.10
2018-07-27T01:47:37.057Z,24.05
2018-07-27T01:48:36.983Z,24.03
2018-07-27T01:49:36.971Z,24.06
2018-07-27T01:50:36.960Z,24.15
2018-07-27T01:51:36.949Z,24.06
2018-07-27T01:52:37.004Z,24.06
2018-07-27T01:53:36.927Z,23.98
2018-07-27T01:54:36.915Z,23.93
2018-07-27T01:55:36.905Z,23.95
2018-07-27T01:56:36.896Z,23.88
2018-07-27T01:57:36.954Z,23.90
2018-07-27T01:58:37.704Z,23.93
2018-07-27T01:59:36.860Z,23.93
2018-07-27T02:00:36.854Z,23.93
2018-07-27T02:01:36.841Z,23.91
2018-07-27T02:02:36.903Z,23.95
2018-07-27T02:03:36.821Z,23.97
2018-07-27T02:04:36.813Z,23.93
2018-07-27T02:05:36.799Z,23.83
2018-07-27T02:06:36.788Z,23.78
2018-07-27T02:07:36.844Z,23.84
2018-07-27T02:08:36.769Z,23.80
2018-07-27T02:09:36.756Z,23.75
2018-07-27T02:10:36.744Z,23.78
2018-07-27T02:11:36.741Z,23.70
2018-07-27T02:12:36.789Z,23.73
2018-07-27T02:13:36.716Z,23.70
2018-07-27T02:14:36.706Z,23.69
2018-07-27T02:15:36.694Z,23.72
2018-07-27T02:16:36.685Z,23.73
2018-07-27T02:17:36.743Z,23.70
2018-07-27T02:18:36.661Z,23.65
2018-07-27T02:19:37.207Z,23.66
2018-07-27T02:20:36.641Z,23.68
2018-07-27T02:21:36.628Z,23.65
2018-07-27T02:22:36.688Z,23.63
2018-07-27T02:23:36.653Z,23.57
2018-07-27T02:24:36.597Z,23.58
2018-07-27T02:25:36.591Z,23.50
2018-07-27T02:26:36.582Z,23.50
2018-07-27T02:27:36.632Z,23.55
2018-07-27T02:28:36.555Z,23.50
2018-07-27T02:29:36.550Z,23.40
2018-07-27T02:30:36.539Z,23.48
2018-07-27T02:31:36.526Z,23.43
2018-07-27T02:32:36.583Z,23.43
2018-07-27T02:33:36.544Z,23.42
2018-07-27T02:34:36.492Z,23.35
2018-07-27T02:35:36.484Z,23.42
2018-07-27T02:36:36.475Z,23.32
2018-07-27T02:37:36.533Z,23.33
2018-07-27T02:38:36.517Z,23.35
2018-07-27T02:39:36.442Z,23.28
2018-07-27T02:40:37.205Z,23.38
2018-07-27T02:41:36.421Z,23.31
2018-07-27T02:42:36.409Z,23.27
2018-07-27T02:43:36.464Z,23.32
2018-07-27T02:44:36.383Z,23.22
2018-07-27T02:45:37.208Z,23.22
2018-07-27T02:46:36.365Z,23.22
2018-07-27T02:47:36.353Z,23.23
2018-07-27T02:48:36.401Z,23.22
2018-07-27T02:49:36.328Z,23.19
2018-07-27T02:50:36.319Z,23.22
2018-07-27T02:51:36.314Z,23.20
2018-07-27T02:52:36.314Z,23.16
2018-07-27T02:53:36.356Z,23.22
2018-07-27T02:54:36.276Z,23.17
2018-07-27T02:55:36.268Z,23.12
2018-07-27T02:56:36.256Z,23.12
2018-07-27T02:57:36.251Z,23.13
2018-07-27T02:58:36.298Z,23.13
2018-07-27T02:59:36.223Z,23.09
2018-07-27T03:00:36.215Z,23.01
2018-07-27T03:01:36.702Z,23.10
2018-07-27T03:02:36.188Z,22.98
2018-07-27T03:03:36.256Z,23.07
2018-07-27T03:04:36.167Z,22.98
2018-07-27T03:05:36.160Z,22.92
2018-07-27T03:06:36.146Z,22.95
2018-07-27T03:07:36.135Z,22.94
2018-07-27T03:08:36.191Z,22.91
2018-07-27T03:09:36.122Z,22.98
2018-07-27T03:10:36.105Z,22.95
2018-07-27T03:11:36.090Z,22.97
2018-07-27T03:12:36.080Z,22.98
2018-07-27T03:13:36.142Z,22.97
2018-07-27T03:14:36.061Z,22.98
2018-07-27T03:15:36.059Z,22.90
2018-07-27T03:16:36.048Z,22.94
2018-07-27T03:17:36.027Z,22.95
2018-07-27T03:18:36.084Z,22.97
2018-07-27T03:19:36.008Z,22.95
2018-07-27T03:20:35.993Z,22.92
2018-07-27T03:21:35.982Z,22.94
2018-07-27T03:22:36.707Z,22.94
2018-07-27T03:23:36.027Z,22.97
2018-07-27T03:24:35.958Z,22.95
2018-07-27T03:25:35.946Z,22.91
2018-07-27T03:26:35.928Z,22.98
2018-07-27T03:27:35.927Z,22.95
2018-07-27T03:28:35.971Z,22.85
2018-07-27T03:29:35.894Z,22.83
2018-07-27T03:30:35.886Z,22.90
2018-07-27T03:31:35.878Z,22.85
2018-07-27T03:32:35.866Z,22.75
2018-07-27T03:33:35.924Z,22.86
2018-07-27T03:34:35.842Z,22.83
2018-07-27T03:35:35.833Z,22.86
2018-07-27T03:36:35.823Z,22.82
2018-07-27T03:37:35.812Z,22.85
2018-07-27T03:38:35.870Z,22.82
2018-07-27T03:39:35.792Z,22.70
2018-07-27T03:40:35.780Z,22.80
2018-07-27T03:41:35.772Z,22.76
2018-07-27T03:42:35.761Z,22.70
2018-07-27T03:43:36.296Z,22.75
2018-07-27T03:44:35.736Z,22.72
2018-07-27T03:45:35.723Z,22.58
2018-07-27T03:46:35.712Z,22.60
2018-07-27T03:47:35.706Z,22.61
2018-07-27T03:48:35.759Z,22.62
2018-07-27T03:49:35.681Z,22.64
2018-07-27T03:50:35.679Z,22.61
2018-07-27T03:51:35.662Z,22.52
2018-07-27T03:52:35.654Z,22.51
2018-07-27T03:53:35.709Z,22.54
2018-07-27T03:54:35.629Z,22.54
2018-07-27T03:55:35.621Z,22.57
2018-07-27T03:56:35.610Z,22.54
2018-07-27T03:57:35.598Z,22.55
2018-07-27T03:58:35.651Z,22.47
2018-07-27T03:59:35.576Z,22.46
2018-07-27T04:00:35.572Z,22.49
2018-07-27T04:01:35.557Z,22.46
2018-07-27T04:02:35.543Z,22.43
2018-07-27T04:03:35.598Z,22.40
2018-07-27T04:04:36.199Z,22.43
2018-07-27T04:05:35.512Z,22.36
2018-07-27T04:06:35.501Z,22.43
2018-07-27T04:07:35.493Z,22.42
2018-07-27T04:08:35.552Z,22.36
2018-07-27T04:09:35.469Z,22.37
2018-07-27T04:10:35.460Z,22.37
2018-07-27T04:11:35.455Z,22.39
2018-07-27T04:12:35.438Z,22.35
2018-07-27T04:13:35.501Z,22.31
2018-07-27T04:14:35.413Z,22.28
2018-07-27T04:15:35.405Z,22.22
2018-07-27T04:16:35.396Z,22.33
2018-07-27T04:17:35.381Z,22.28
2018-07-27T04:18:35.448Z,22.24
2018-07-27T04:19:35.425Z,22.22
2018-07-27T04:20:35.349Z,22.30
2018-07-27T04:21:35.344Z,22.24
2018-07-27T04:22:35.339Z,22.27
2018-07-27T04:23:35.320Z,22.15
2018-07-27T04:24:35.372Z,22.25
2018-07-27T04:25:37.200Z,22.25
2018-07-27T04:26:35.286Z,22.25
2018-07-27T04:27:43.400Z,22.25
2018-07-27T04:28:43.476Z,22.22
2018-07-27T04:29:43.410Z,22.28
2018-07-27T04:31:44.794Z,22.36
2018-07-27T04:32:53.361Z,22.36
2018-07-27T04:33:44.786Z,22.33
2018-07-27T04:34:44.759Z,22.36
2018-07-27T04:35:44.725Z,22.43
2018-07-27T04:36:44.676Z,22.43
2018-07-27T04:37:44.665Z,22.45
2018-07-27T04:38:44.656Z,22.42
2018-07-27T04:39:44.711Z,22.55
2018-07-27T04:40:44.632Z,22.76
2018-07-27T04:41:44.638Z,22.70
2018-07-27T04:42:44.622Z,22.82
2018-07-27T04:43:44.603Z,23.00
2018-07-27T04:44:44.653Z,23.00
2018-07-27T04:45:44.592Z,23.07
2018-07-27T04:46:44.586Z,23.10
2018-07-27T04:47:44.560Z,23.15
2018-07-27T04:48:44.550Z,23.22
2018-07-27T04:49:44.617Z,23.33
2018-07-27T04:50:44.573Z,23.25
2018-07-27T04:51:44.617Z,23.35
2018-07-27T04:52:44.509Z,23.46
2018-07-27T04:53:45.476Z,23.42
2018-07-27T04:54:44.551Z,23.47
2018-07-27T04:55:44.476Z,23.54
2018-07-27T04:56:44.497Z,23.46
2018-07-27T04:57:44.473Z,23.51
2018-07-27T04:58:44.448Z,23.51
2018-07-27T04:59:44.500Z,23.54
2018-07-27T05:00:44.432Z,23.48
2018-07-27T05:01:44.468Z,23.53
2018-07-27T05:02:44.404Z,23.50
2018-07-27T05:03:44.401Z,23.51
2018-07-27T05:04:44.482Z,23.51
2018-07-27T05:05:44.368Z,23.54
2018-07-27T05:06:44.362Z,23.51
2018-07-27T05:07:44.348Z,23.48
2018-07-27T05:08:44.340Z,23.60
2018-07-27T05:09:44.398Z,23.60
2018-07-27T05:10:44.322Z,23.66
2018-07-27T05:11:44.342Z,23.73
2018-07-27T05:12:44.304Z,23.87
2018-07-27T05:13:44.290Z,23.83
2018-07-27T05:14:44.552Z,23.87
2018-07-27T05:15:44.263Z,23.83
2018-07-27T05:16:44.260Z,23.85
2018-07-27T05:17:44.248Z,23.90
2018-07-27T05:18:44.242Z,23.93
2018-07-27T05:19:44.298Z,23.94
2018-07-27T05:20:44.215Z,23.98
2018-07-27T05:21:44.205Z,24.02
2018-07-27T05:22:44.202Z,24.08
2018-07-27T05:23:44.190Z,23.98
2018-07-27T05:24:44.361Z,24.05
2018-07-27T05:25:44.164Z,24.12
2018-07-27T05:26:44.148Z,24.08
2018-07-27T05:27:44.137Z,24.10
2018-07-27T05:28:44.129Z,24.03
2018-07-27T05:29:44.247Z,24.06
2018-07-27T05:30:44.126Z,24.05
2018-07-27T05:31:44.105Z,24.09
2018-07-27T05:32:44.090Z,24.10
2018-07-27T05:33:44.091Z,24.10
2018-07-27T05:34:44.136Z,24.15
2018-07-27T05:35:44.973Z,24.20
2018-07-27T05:36:44.048Z,24.21
2018-07-27T05:37:44.040Z,24.13
2018-07-27T05:38:44.034Z,24.10
2018-07-27T05:39:44.086Z,24.15
2018-07-27T05:40:44.004Z,24.12
2018-07-27T05:41:44.014Z,24.25
2018-07-27T05:42:44.003Z,24.28
2018-07-27T05:43:43.973Z,24.31
2018-07-27T05:44:44.034Z,24.35
2018-07-27T05:45:43.958Z,24.34
2018-07-27T05:46:43.940Z,24.49
2018-07-27T05:47:43.929Z,24.50
2018-07-27T05:48:43.983Z,24.55
2018-07-27T05:49:43.981Z,24.64
2018-07-27T05:50:43.959Z,24.68
2018-07-27T05:51:43.889Z,24.77
2018-07-27T05:52:43.893Z,24.85
2018-07-27T05:53:43.868Z,24.93
2018-07-27T05:54:43.923Z,24.95
2018-07-27T05:55:43.845Z,25.02
2018-07-27T05:56:44.473Z,25.06
2018-07-27T05:57:43.824Z,25.15
2018-07-27T05:58:43.847Z,25.24
2018-07-27T05:59:43.873Z,25.25
2018-07-27T06:00:43.797Z,25.40
2018-07-27T06:01:43.798Z,25.40
2018-07-27T06:02:43.827Z,25.35
2018-07-27T06:03:43.762Z,25.47
2018-07-27T06:04:43.842Z,25.40
2018-07-27T06:05:43.740Z,25.55
2018-07-27T06:06:43.732Z,25.61
2018-07-27T06:07:43.721Z,25.76
2018-07-27T06:08:43.763Z,25.75
2018-07-27T06:09:43.765Z,25.87
2018-07-27T06:10:43.685Z,25.92
2018-07-27T06:11:43.677Z,26.01
2018-07-27T06:12:43.663Z,26.05
2018-07-27T06:13:43.652Z,26.09
2018-07-27T06:14:43.718Z,26.25
2018-07-27T06:15:43.634Z,26.26
2018-07-27T06:16:43.624Z,26.32
2018-07-27T06:17:44.051Z,26.40
2018-07-27T06:18:43.601Z,26.51
2018-07-27T06:19:43.594Z,26.57
2018-07-27T06:20:43.643Z,26.70
2018-07-27T06:21:43.572Z,26.75
2018-07-27T06:22:43.561Z,26.77
2018-07-27T06:23:43.602Z,26.97
2018-07-27T06:24:43.545Z,26.94
2018-07-27T06:25:43.607Z,27.07
2018-07-27T06:26:43.533Z,27.09
2018-07-27T06:27:43.514Z,27.17
2018-07-27T06:28:43.503Z,27.24
2018-07-27T06:29:43.489Z,27.34
2018-07-27T06:30:43.552Z,27.32
2018-07-27T06:31:43.479Z,27.51
2018-07-27T06:32:43.464Z,27.59
2018-07-27T06:33:43.452Z,27.66
2018-07-27T06:34:43.439Z,27.75
2018-07-27T06:35:43.497Z,27.74
2018-07-27T06:36:43.422Z,27.82
2018-07-27T06:37:43.413Z,27.94
2018-07-27T06:38:43.976Z,28.02
2018-07-27T06:39:43.387Z,28.07
2018-07-27T06:40:43.447Z,28.19
2018-07-27T06:41:43.370Z,28.15
2018-07-27T06:42:43.359Z,28.31
2018-07-27T06:43:43.350Z,28.40
2018-07-27T06:44:43.345Z,28.49
2018-07-27T06:45:43.392Z,28.64
2018-07-27T06:46:43.973Z,28.70
2018-07-27T06:47:43.307Z,28.76
2018-07-27T06:48:43.298Z,28.83
2018-07-27T06:49:43.288Z,28.95
2018-07-27T06:50:43.361Z,29.12
2018-07-27T06:51:43.268Z,29.14
2018-07-27T06:52:43.257Z,29.30
2018-07-27T06:53:43.248Z,29.42
2018-07-27T06:54:43.241Z,29.60
2018-07-27T06:55:43.292Z,29.63
2018-07-27T06:56:43.218Z,29.63
2018-07-27T06:57:43.212Z,29.71
2018-07-27T06:58:43.199Z,29.64
2018-07-27T06:59:43.975Z,29.71
2018-07-27T07:00:43.246Z,29.79
2018-07-27T07:01:43.168Z,29.90
2018-07-27T07:02:43.157Z,30.01
2018-07-27T07:03:43.156Z,30.04
2018-07-27T07:04:43.142Z,30.20
2018-07-27T07:05:43.200Z,30.16
2018-07-27T07:06:43.127Z,30.35
2018-07-27T07:07:43.113Z,30.42
2018-07-27T07:08:43.102Z,30.60
2018-07-27T07:09:43.118Z,30.67
2018-07-27T07:10:43.146Z,30.75
2018-07-27T07:11:43.072Z,30.86
2018-07-27T07:12:43.066Z,31.04
2018-07-27T07:13:43.055Z,31.14
2018-07-27T07:14:43.041Z,31.20
2018-07-27T07:15:43.102Z,31.21
2018-07-27T07:16:43.022Z,31.39
2018-07-27T07:17:43.011Z,31.39
2018-07-27T07:18:43.005Z,31.47
2018-07-27T07:19:42.994Z,31.65
2018-07-27T07:21:04.094Z,31.69
2018-07-27T07:21:42.978Z,31.76
2018-07-27T07:22:42.972Z,31.88
2018-07-27T07:23:42.955Z,31.92
2018-07-27T07:24:42.947Z,32.00
2018-07-27T07:25:43.180Z,32.13
2018-07-27T07:26:42.931Z,32.33
2018-07-27T07:27:42.922Z,32.52
2018-07-27T07:28:42.911Z,32.60
2018-07-27T07:29:42.897Z,32.67
2018-07-27T07:30:42.963Z,32.81
2018-07-27T07:31:42.883Z,33.04
2018-07-27T07:32:42.874Z,33.14
2018-07-27T07:33:42.869Z,33.18
2018-07-27T07:34:42.854Z,33.31
2018-07-27T07:35:42.909Z,33.35
2018-07-27T07:36:42.834Z,33.34
2018-07-27T07:37:42.830Z,33.39
2018-07-27T07:38:42.813Z,33.47
2018-07-27T07:39:42.807Z,33.44
2018-07-27T07:40:42.875Z,33.54
2018-07-27T07:41:42.793Z,33.66
2018-07-27T07:42:43.479Z,33.65
2018-07-27T07:43:42.813Z,33.72
2018-07-27T07:44:42.762Z,33.75
2018-07-27T07:45:42.818Z,33.87
2018-07-27T07:46:42.810Z,33.91
2018-07-27T07:47:42.732Z,34.12
2018-07-27T07:48:42.726Z,34.06
2018-07-27T07:49:42.718Z,34.21
2018-07-27T07:50:42.707Z,34.30
2018-07-27T07:51:42.765Z,34.42
2018-07-27T07:52:42.732Z,34.61
2018-07-27T07:53:42.684Z,34.78
2018-07-27T07:54:42.671Z,34.97
2018-07-27T07:55:50.792Z,35.03
2018-07-27T07:56:50.866Z,35.10
2018-07-27T07:57:42.650Z,35.22
2018-07-27T07:58:42.667Z,35.33
2018-07-27T07:59:50.650Z,35.26
2018-07-27T08:00:42.622Z,35.29
2018-07-27T08:01:42.684Z,35.28
2018-07-27T08:02:50.127Z,35.10
2018-07-27T08:03:42.600Z,35.11
2018-07-27T08:04:42.590Z,35.22
2018-07-27T08:05:42.637Z,35.34
2018-07-27T08:06:50.824Z,35.56
2018-07-27T08:07:42.564Z,35.63
2018-07-27T08:08:42.558Z,35.90
2018-07-27T08:09:42.545Z,35.92
2018-07-27T08:10:42.538Z,35.97
2018-07-27T08:11:42.599Z,36.20
2018-07-27T08:12:42.522Z,36.23
2018-07-27T08:13:42.513Z,36.49
2018-07-27T08:14:42.505Z,36.60
2018-07-27T08:15:42.496Z,36.66
2018-07-27T08:16:42.569Z,36.91
2018-07-27T08:17:42.480Z,37.02
2018-07-27T08:18:42.479Z,37.27
2018-07-27T08:19:42.465Z,37.41
2018-07-27T08:20:42.457Z,37.50
2018-07-27T08:21:51.162Z,37.57
2018-07-27T08:22:50.555Z,37.64
2018-07-27T08:23:50.557Z,37.62
2018-07-27T08:26:20.891Z,37.75
2018-07-27T08:27:34.125Z,37.79
2018-07-27T08:28:20.814Z,37.89
2018-07-27T08:29:20.803Z,38.03
2018-07-27T08:30:20.794Z,38.12
2018-07-27T08:31:20.782Z,38.15
2018-07-27T08:32:20.849Z,38.19
2018-07-27T08:33:20.766Z,38.23
2018-07-27T08:34:20.766Z,38.38
2018-07-27T08:35:20.752Z,38.41
2018-07-27T08:36:20.743Z,38.59
2018-07-27T08:37:20.804Z,38.60
2018-07-27T08:38:20.729Z,38.57
2018-07-27T08:39:20.729Z,38.81
2018-07-27T08:40:20.718Z,38.96
2018-07-27T08:41:20.709Z,39.04
2018-07-27T08:42:20.768Z,38.98
2018-07-27T08:43:21.506Z,38.95
2018-07-27T08:44:20.687Z,38.93
2018-07-27T08:45:20.681Z,39.03
2018-07-27T08:46:20.678Z,39.01
2018-07-27T08:47:20.791Z,39.11
2018-07-27T08:48:21.502Z,39.09
2018-07-27T08:49:20.650Z,39.09
2018-07-27T08:50:20.644Z,39.18
2018-07-27T08:51:20.649Z,39.25
2018-07-27T08:52:20.694Z,39.17
2018-07-27T08:53:20.622Z,39.10
2018-07-27T08:54:20.619Z,39.36
2018-07-27T08:55:20.605Z,39.64
2018-07-27T08:56:20.646Z,39.72
2018-07-27T08:57:20.666Z,39.85
2018-07-27T08:58:20.594Z,39.84
2018-07-27T08:59:20.579Z,40.06
2018-07-27T09:00:20.585Z,40.20
2018-07-27T09:01:20.562Z,40.26
2018-07-27T09:02:20.630Z,40.43
2018-07-27T09:03:20.554Z,40.54
2018-07-27T09:04:21.499Z,40.51
2018-07-27T09:05:20.545Z,40.70
2018-07-27T09:06:20.535Z,40.80
2018-07-27T09:07:20.587Z,40.72
2018-07-27T09:08:20.517Z,40.91
2018-07-27T09:09:20.511Z,41.11
2018-07-27T09:10:20.516Z,41.11
2018-07-27T09:11:20.503Z,41.18
2018-07-27T09:12:20.560Z,41.36
2018-07-27T09:13:20.485Z,41.51
2018-07-27T09:14:20.477Z,41.58
2018-07-27T09:15:20.473Z,41.82
2018-07-27T09:16:20.465Z,41.93
2018-07-27T09:17:20.565Z,42.12
2018-07-27T09:18:20.490Z,42.12
2018-07-27T09:19:20.446Z,42.17
2018-07-27T09:20:20.440Z,42.30
2018-07-27T09:21:20.431Z,42.16
2018-07-27T09:22:20.425Z,42.24
2018-07-27T09:23:20.489Z,42.16
2018-07-27T09:24:20.469Z,42.01
2018-07-27T09:25:21.225Z,42.08
2018-07-27T09:26:20.400Z,42.17
2018-07-27T09:27:20.396Z,42.40
2018-07-27T09:28:20.458Z,42.57
2018-07-27T09:29:20.438Z,42.45
2018-07-27T09:30:20.377Z,41.91
2018-07-27T09:31:20.365Z,41.76
2018-07-27T09:32:20.363Z,41.54
2018-07-27T09:33:20.423Z,41.60
2018-07-27T09:34:20.346Z,41.71
2018-07-27T09:35:20.351Z,41.94
2018-07-27T09:36:20.334Z,42.24
2018-07-27T09:37:20.329Z,42.57
2018-07-27T09:38:20.397Z,42.76
2018-07-27T09:39:20.323Z,42.96
2018-07-27T09:40:20.314Z,43.11
2018-07-27T09:41:20.305Z,43.50
2018-07-27T09:42:20.300Z,43.60
2018-07-27T09:43:20.360Z,43.71
2018-07-27T09:44:20.288Z,43.83
2018-07-27T09:45:20.286Z,43.73
2018-07-27T09:46:24.983Z,43.17
2018-07-27T09:47:20.313Z,42.87
2018-07-27T09:48:20.326Z,42.89
2018-07-27T09:49:20.259Z,43.14
2018-07-27T09:50:20.254Z,43.57
2018-07-27T09:51:20.245Z,43.65
2018-07-27T09:52:20.236Z,43.81
2018-07-27T09:53:20.305Z,43.93
2018-07-27T09:54:20.230Z,44.10
2018-07-27T09:55:20.222Z,44.05
2018-07-27T09:56:20.213Z,44.24
2018-07-27T09:57:20.315Z,44.16
2018-07-27T09:58:20.205Z,43.53
2018-07-27T09:59:20.262Z,43.66
2018-07-27T10:00:20.198Z,44.09
2018-07-27T10:01:20.187Z,44.51
2018-07-27T10:02:20.974Z,44.90
2018-07-27T10:03:20.174Z,45.20
2018-07-27T10:04:20.225Z,45.51
2018-07-27T10:05:20.159Z,45.69
2018-07-27T10:06:20.161Z,46.12
2018-07-27T10:07:20.970Z,46.33
2018-07-27T10:08:20.144Z,46.59
2018-07-27T10:09:20.214Z,46.87
2018-07-27T10:10:20.133Z,46.87
2018-07-27T10:11:20.132Z,46.86
2018-07-27T10:12:20.129Z,46.80
2018-07-27T10:13:20.121Z,46.72
2018-07-27T10:14:20.206Z,46.68
2018-07-27T10:15:20.189Z,46.35
2018-07-27T10:16:20.103Z,46.43
2018-07-27T10:17:20.095Z,46.68
2018-07-27T10:18:20.092Z,46.95
2018-07-27T10:19:20.155Z,47.06
2018-07-27T10:20:20.077Z,47.02
2018-07-27T10:21:20.077Z,46.84
2018-07-27T10:22:20.071Z,46.16
2018-07-27T10:23:20.061Z,45.45
2018-07-27T10:24:20.123Z,45.91
2018-07-27T10:25:20.054Z,46.33
2018-07-27T10:26:20.064Z,46.43
2018-07-27T10:27:20.038Z,46.23
2018-07-27T10:28:20.961Z,46.21
2018-07-27T10:29:20.092Z,46.23
2018-07-27T10:30:20.033Z,46.35
2018-07-27T10:31:20.028Z,46.58
2018-07-27T10:32:20.009Z,46.86
2018-07-27T10:33:20.011Z,47.18
2018-07-27T10:34:20.078Z,47.37
2018-07-27T10:35:19.994Z,47.60
2018-07-27T10:36:19.988Z,47.56
2018-07-27T10:37:19.982Z,47.61
2018-07-27T10:38:19.979Z,47.85
2018-07-27T10:39:20.039Z,48.13
2018-07-27T10:40:19.983Z,48.44
2018-07-27T10:41:19.970Z,48.55
2018-07-27T10:42:19.974Z,48.51
2018-07-27T10:43:19.953Z,48.69
2018-07-27T10:44:20.032Z,48.74
2018-07-27T10:45:19.941Z,48.93
2018-07-27T10:46:19.939Z,48.79
2018-07-27T10:47:19.938Z,48.73
2018-07-27T10:48:19.929Z,48.86
2018-07-27T10:49:20.450Z,48.61
2018-07-27T10:50:20.068Z,48.42
2018-07-27T10:51:19.912Z,48.63
2018-07-27T10:52:19.916Z,48.60
2018-07-27T10:53:19.903Z,48.58
2018-07-27T10:54:19.900Z,48.64
2018-07-27T10:55:19.963Z,48.67
2018-07-27T10:56:19.892Z,48.76
2018-07-27T10:57:19.889Z,48.91
2018-07-27T10:58:19.880Z,49.05
2018-07-27T10:59:19.874Z,49.40
2018-07-27T11:00:19.932Z,49.63
2018-07-27T11:01:19.862Z,49.91
2018-07-27T11:02:19.891Z,50.13
2018-07-27T11:03:19.854Z,50.16
2018-07-27T11:04:19.848Z,50.38
2018-07-27T11:05:19.910Z,50.66
2018-07-27T11:06:19.840Z,50.96
2018-07-27T11:07:19.836Z,50.63
2018-07-27T11:08:19.834Z,50.18
2018-07-27T11:09:19.825Z,50.04
2018-07-27T11:10:20.007Z,50.16
2018-07-27T11:11:19.828Z,50.12
2018-07-27T11:12:19.810Z,50.15
2018-07-27T11:13:19.809Z,50.18
2018-07-27T11:14:19.802Z,50.13
2018-07-27T11:15:19.925Z,50.15
2018-07-27T11:16:19.809Z,50.25
2018-07-27T11:17:19.847Z,50.42
2018-07-27T11:18:19.776Z,50.28
2018-07-27T11:19:19.772Z,50.08
2018-07-27T11:20:19.836Z,50.23
2018-07-27T11:21:19.766Z,50.13
2018-07-27T11:22:19.757Z,50.23
2018-07-27T11:23:19.752Z,50.52
2018-07-27T11:24:20.435Z,50.81
2018-07-27T11:25:19.997Z,51.01
2018-07-27T11:26:19.749Z,51.07
2018-07-27T11:27:19.735Z,51.11
2018-07-27T11:28:19.731Z,51.26
2018-07-27T11:29:19.722Z,51.28
2018-07-27T11:30:19.817Z,51.15
2018-07-27T11:31:20.411Z,51.42
2018-07-27T11:32:19.713Z,51.62
2018-07-27T11:33:19.709Z,51.79
2018-07-27T11:34:19.702Z,51.84
2018-07-27T11:35:19.914Z,51.82
2018-07-27T11:36:19.690Z,51.42
2018-07-27T11:37:19.752Z,51.20
2018-07-27T11:38:19.692Z,51.36
2018-07-27T11:39:19.681Z,51.58
2018-07-27T11:40:19.675Z,51.81
2018-07-27T11:41:19.740Z,52.01
2018-07-27T11:42:19.724Z,52.17
2018-07-27T11:43:19.668Z,52.12
2018-07-27T11:44:19.657Z,52.03
2018-07-27T11:45:19.652Z,52.20
2018-07-27T11:46:19.712Z,52.29
2018-07-27T11:47:19.645Z,52.29
2018-07-27T11:48:19.647Z,52.01
2018-07-27T11:49:19.680Z,51.96
2018-07-27T11:50:19.629Z,51.84
2018-07-27T11:51:19.694Z,51.40
2018-07-27T11:52:20.398Z,51.28
2018-07-27T11:53:19.619Z,51.04
2018-07-27T11:54:19.613Z,50.95
2018-07-27T11:55:19.613Z,50.70
2018-07-27T11:56:19.670Z,50.69
2018-07-27T11:57:19.602Z,50.64
2018-07-27T11:58:19.595Z,50.81
2018-07-27T11:59:19.588Z,50.67
2018-07-27T12:00:19.597Z,50.66
2018-07-27T12:01:19.647Z,50.77
2018-07-27T12:02:19.590Z,50.67
2018-07-27T12:03:19.577Z,50.38
2018-07-27T12:04:19.571Z,50.51
2018-07-27T12:05:19.567Z,50.71
2018-07-27T12:06:19.631Z,51.04
2018-07-27T12:07:19.565Z,51.33
2018-07-27T12:08:19.553Z,50.85
2018-07-27T12:09:19.547Z,50.50
2018-07-27T12:10:19.544Z,50.30
2018-07-27T12:11:19.606Z,50.45
2018-07-27T12:12:19.533Z,50.66
2018-07-27T12:13:20.383Z,50.67
2018-07-27T12:14:19.627Z,50.93
2018-07-27T12:15:19.724Z,51.11
2018-07-27T12:16:27.171Z,51.39
2018-07-27T12:17:27.048Z,51.46
2018-07-27T12:18:27.049Z,51.65
2018-07-27T12:19:52.101Z,51.73
2018-07-27T12:20:19.494Z,50.86
2018-07-27T12:21:27.238Z,50.76
2018-07-27T12:22:27.030Z,50.92
2018-07-27T12:23:19.548Z,51.23
2018-07-27T12:24:19.480Z,51.33
2018-07-27T12:25:19.479Z,51.07
2018-07-27T12:26:19.478Z,50.95
2018-07-27T12:27:19.532Z,50.70
2018-07-27T12:28:19.456Z,50.52
2018-07-27T12:29:19.448Z,50.67
2018-07-27T12:30:19.445Z,50.81
2018-07-27T12:31:19.452Z,51.07
2018-07-27T12:32:19.504Z,51.05
2018-07-27T12:33:19.441Z,51.11
2018-07-27T12:34:19.428Z,51.09
2018-07-27T12:35:19.416Z,50.67
2018-07-27T12:36:19.413Z,50.33
2018-07-27T12:37:19.478Z,50.58
2018-07-27T12:38:19.407Z,50.58
2018-07-27T12:39:19.403Z,50.81
2018-07-27T12:40:19.403Z,51.02
2018-07-27T12:41:19.399Z,51.31
2018-07-27T12:42:19.453Z,50.86
2018-07-27T12:43:20.088Z,50.45
2018-07-27T12:44:19.375Z,49.93
2018-07-27T12:45:19.370Z,49.81
2018-07-27T12:46:19.369Z,49.56
2018-07-27T12:47:19.430Z,49.24
2018-07-27T12:48:19.374Z,49.36
2018-07-27T12:49:19.362Z,49.02
2018-07-27T12:50:19.351Z,48.70
2018-07-27T12:51:19.469Z,47.82
2018-07-27T12:52:19.406Z,47.06
2018-07-27T12:53:19.339Z,47.17
2018-07-27T12:54:19.334Z,47.34
2018-07-27T12:55:19.328Z,47.43